Time,TemperatureF,DewpointF,PressureIn,WindDirection,WindDirectionDegrees,WindSpeedMPH,WindSpeedGustMPH,Humidity,HourlyPrecipIn,Conditions,Clouds,dailyrainin,SoftwareType,DateUTC
2013-03-12 00:00:00,31.1,21.8,29.92,WSW,248,0.0,0.0,68,0.00,,SKC,0.00,VWS V14.01,2013-03-12 05:00:00,
2013-03-12 00:10:00,31.3,22.0,29.92,WSW,248,0.0,0.0,68,0.00,,SKC,0.00,VWS V14.01,2013-03-12 05:10:00,
2013-03-12 00:20:00,31.5,21.8,29.93,WSW,248,0.0,1.0,67,0.00,,SKC,0.00,VWS V14.01,2013-03-12 05:20:00,
2013-03-12 00:30:00,31.7,22.0,29.93,WSW,248,0.0,0.0,67,0.00,,SKC,0.00,VWS V14.01,2013-03-12 05:30:00,
2013-03-12 00:40:00,31.7,22.4,29.93,WSW,248,0.0,0.0,68,0.00,,SKC,0.00,VWS V14.01,2013-03-12 05:40:00,
2013-03-12 00:50:00,31.7,22.7,29.92,WSW,248,0.0,0.0,69,0.00,,SKC,0.00,VWS V14.01,2013-03-12 05:50:00,
2013-03-12 01:00:00,31.6,23.0,29.92,WSW,248,0.0,0.0,70,0.00,,SKC,0.00,VWS V14.01,2013-03-12 06:00:00,
2013-03-12 01:10:00,31.5,22.9,29.92,WSW,248,0.0,0.0,70,0.00,,SKC,0.00,VWS V14.01,2013-03-12 06:10:00,
2013-03-12 01:20:00,31.5,23.2,29.93,WSW,248,0.0,0.0,71,0.00,,SKC,0.00,VWS V14.01,2013-03-12 06:20:00,
2013-03-12 01:30:00,31.5,23.2,29.94,WSW,248,0.0,0.0,71,0.00,,SKC,0.00,VWS V14.01,2013-03-12 06:30:00,
2013-03-12 01:40:00,31.5,23.5,29.94,WSW,248,0.0,2.0,72,0.00,,SKC,0.00,VWS V14.01,2013-03-12 06:40:00,
2013-03-12 01:50:00,31.5,23.5,29.95,West,270,0.0,3.0,72,0.00,,SKC,0.00,VWS V14.01,2013-03-12 06:50:00,
2013-03-12 02:00:00,31.6,23.6,29.94,West,270,1.0,4.0,72,0.00,,SKC,0.00,VWS V14.01,2013-03-12 07:00:00,
2013-03-12 02:10:00,31.9,24.2,29.95,WNW,292,2.0,7.0,73,0.00,,SKC,0.00,VWS V14.01,2013-03-12 07:10:00,
2013-03-12 02:20:00,32.4,24.7,29.94,WNW,292,3.0,7.0,73,0.00,,SKC,0.00,VWS V14.01,2013-03-12 07:20:00,
2013-03-12 02:30:00,32.5,25.1,29.93,NW,315,1.0,7.0,74,0.00,,SKC,0.00,VWS V14.01,2013-03-12 07:30:00,
2013-03-12 02:40:00,32.3,25.3,29.95,NW,315,2.0,7.0,75,0.00,,SKC,0.00,VWS V14.01,2013-03-12 07:40:00,
2013-03-12 02:50:00,32.4,25.7,29.96,NW,315,2.0,6.0,76,0.00,,SKC,0.00,VWS V14.01,2013-03-12 07:50:00,
2013-03-12 03:00:00,32.5,26.1,29.96,NW,315,0.0,4.0,77,0.00,,SKC,0.00,VWS V14.01,2013-03-12 08:00:00,
2013-03-12 03:10:00,32.6,26.2,29.97,NW,315,1.0,4.0,77,0.00,,SKC,0.00,VWS V14.01,2013-03-12 08:10:00,
2013-03-12 03:20:00,32.6,26.2,29.96,NW,315,0.0,3.0,77,0.00,,SKC,0.00,VWS V14.01,2013-03-12 08:20:00,
2013-03-12 03:30:00,32.6,26.5,29.97,NW,315,0.0,4.0,78,0.00,,SKC,0.00,VWS V14.01,2013-03-12 08:30:00,
2013-03-12 03:40:00,32.8,26.7,29.97,NW,315,1.0,5.0,78,0.00,,SKC,0.00,VWS V14.01,2013-03-12 08:40:00,
2013-03-12 03:50:00,32.8,26.7,29.97,NW,315,0.0,4.0,78,0.00,,SKC,0.00,VWS V14.01,2013-03-12 08:50:00,
2013-03-12 04:00:00,32.8,26.7,29.98,NW,315,0.0,3.0,78,0.00,,SKC,0.00,VWS V14.01,2013-03-12 09:00:00,
2013-03-12 04:10:00,32.8,26.7,29.98,NW,315,0.0,1.0,78,0.00,,SKC,0.00,VWS V14.01,2013-03-12 09:10:00,
2013-03-12 04:20:00,32.6,26.5,29.99,NW,315,0.0,0.0,78,0.00,,SKC,0.00,VWS V14.01,2013-03-12 09:20:00,
2013-03-12 04:30:00,32.5,26.4,29.98,NW,315,0.0,0.0,78,0.00,,SKC,0.00,VWS V14.01,2013-03-12 09:30:00,
2013-03-12 04:40:00,32.3,26.2,29.98,NW,315,0.0,0.0,78,0.00,,SKC,0.00,VWS V14.01,2013-03-12 09:40:00,
2013-03-12 04:50:00,32.1,26.0,29.99,NW,315,0.0,2.0,78,0.00,,SKC,0.00,VWS V14.01,2013-03-12 09:50:00,
2013-03-12 05:00:00,32.0,26.2,29.99,NW,315,0.0,1.0,79,0.00,,SKC,0.00,VWS V14.01,2013-03-12 10:00:00,
2013-03-12 05:10:00,31.9,25.8,30.00,NW,315,0.0,0.0,78,0.00,,SKC,0.00,VWS V14.01,2013-03-12 10:10:00,
2013-03-12 05:20:00,31.6,25.9,30.01,NW,315,0.0,0.0,79,0.00,,SKC,0.00,VWS V14.01,2013-03-12 10:20:00,
2013-03-12 05:30:00,31.5,26.0,30.01,NW,315,0.0,1.0,80,0.00,,SKC,0.00,VWS V14.01,2013-03-12 10:30:00,
2013-03-12 05:40:00,31.4,26.0,30.01,NW,315,0.0,0.0,80,0.00,,SKC,0.00,VWS V14.01,2013-03-12 10:40:00,
2013-03-12 05:50:00,31.2,25.5,30.00,NW,315,0.0,0.0,79,0.00,,SKC,0.00,VWS V14.01,2013-03-12 10:50:00,
2013-03-12 06:00:00,30.9,25.5,30.01,NW,315,0.0,0.0,80,0.00,,SKC,0.00,VWS V14.01,2013-03-12 11:00:00,
2013-03-12 06:10:00,30.7,25.3,30.02,NW,315,0.0,0.0,80,0.00,,SKC,0.00,VWS V14.01,2013-03-12 11:10:00,
2013-03-12 06:20:00,30.3,25.2,30.02,NW,315,0.0,0.0,81,0.00,,SKC,0.00,VWS V14.01,2013-03-12 11:20:00,
2013-03-12 06:30:00,29.9,24.8,30.03,NW,315,0.0,0.0,81,0.00,,SKC,0.00,VWS V14.01,2013-03-12 11:30:00,
2013-03-12 06:40:00,29.5,24.7,30.03,NW,315,0.0,0.0,82,0.00,,SKC,0.00,VWS V14.01,2013-03-12 11:40:00,
2013-03-12 06:50:00,29.2,24.7,30.03,NW,315,0.0,1.0,83,0.00,,SKC,0.00,VWS V14.01,2013-03-12 11:50:00,
2013-03-12 07:00:00,29.0,24.5,30.04,NW,315,0.0,0.0,83,0.00,,SKC,0.00,VWS V14.01,2013-03-12 12:00:00,
2013-03-12 07:10:00,28.8,24.6,30.04,NW,315,0.0,0.0,84,0.00,,SKC,0.00,VWS V14.01,2013-03-12 12:10:00,
2013-03-12 07:20:00,28.7,24.8,30.05,NW,315,0.0,0.0,85,0.00,,SKC,0.00,VWS V14.01,2013-03-12 12:20:00,
2013-03-12 07:30:00,28.6,24.7,30.04,NW,315,0.0,1.0,85,0.00,,SKC,0.00,VWS V14.01,2013-03-12 12:30:00,
2013-03-12 07:40:00,28.5,24.6,30.05,NW,315,0.0,0.0,85,0.00,,SKC,0.00,VWS V14.01,2013-03-12 12:40:00,
2013-03-12 07:50:00,28.5,24.9,30.05,NW,315,0.0,0.0,86,0.00,,SKC,0.00,VWS V14.01,2013-03-12 12:50:00,
2013-03-12 08:00:00,28.4,24.8,30.05,NW,315,0.0,0.0,86,0.00,,SKC,0.00,VWS V14.01,2013-03-12 13:00:00,
2013-03-12 08:10:00,28.4,24.8,30.05,NW,315,0.0,3.0,86,0.00,,SKC,0.00,VWS V14.01,2013-03-12 13:10:00,
2013-03-12 08:20:00,28.7,25.0,30.05,NW,315,0.0,3.0,86,0.00,,SKC,0.00,VWS V14.01,2013-03-12 13:20:00,
2013-03-12 08:30:00,29.0,25.6,30.06,NW,315,0.0,2.0,87,0.00,,SKC,0.00,VWS V14.01,2013-03-12 13:30:00,
2013-03-12 08:40:00,29.6,26.2,30.06,WNW,292,1.0,4.0,87,0.00,,SKC,0.00,VWS V14.01,2013-03-12 13:40:00,
2013-03-12 08:50:00,30.4,26.7,30.07,WNW,292,0.0,4.0,86,0.00,,SKC,0.00,VWS V14.01,2013-03-12 13:50:00,
2013-03-12 09:00:00,31.4,27.7,30.08,West,270,1.0,6.0,86,0.00,,SKC,0.00,VWS V14.01,2013-03-12 14:00:00,
2013-03-12 09:10:00,32.6,28.0,30.08,West,270,1.0,9.0,83,0.00,,SKC,0.00,VWS V14.01,2013-03-12 14:10:00,
2013-03-12 09:20:00,33.4,28.5,30.08,WSW,248,1.0,6.0,82,0.00,,SKC,0.00,VWS V14.01,2013-03-12 14:20:00,
2013-03-12 09:30:00,33.9,28.4,30.09,WSW,248,1.0,7.0,80,0.00,,SKC,0.00,VWS V14.01,2013-03-12 14:30:00,
2013-03-12 09:40:00,34.4,28.9,30.10,WSW,248,2.0,10.0,80,0.00,,SKC,0.00,VWS V14.01,2013-03-12 14:40:00,
2013-03-12 09:50:00,34.7,28.5,30.11,West,270,2.0,6.0,78,0.00,,SKC,0.00,VWS V14.01,2013-03-12 14:50:00,
2013-03-12 10:00:00,35.1,29.3,30.11,West,270,1.0,6.0,79,0.00,,SKC,0.00,VWS V14.01,2013-03-12 15:00:00,
2013-03-12 10:10:00,35.8,29.3,30.11,West,270,1.0,5.0,77,0.00,,SKC,0.00,VWS V14.01,2013-03-12 15:10:00,
2013-03-12 10:20:00,36.6,29.4,30.11,WSW,248,2.0,9.0,75,0.00,,SKC,0.00,VWS V14.01,2013-03-12 15:20:00,
2013-03-12 10:30:00,37.5,29.3,30.12,WNW,292,1.0,7.0,72,0.00,,SKC,0.00,VWS V14.01,2013-03-12 15:30:00,
2013-03-12 10:40:00,38.0,28.8,30.11,WNW,292,3.0,12.0,69,0.00,,SKC,0.00,VWS V14.01,2013-03-12 15:40:00,
2013-03-12 10:50:00,38.4,28.8,30.11,West,270,3.0,12.0,68,0.00,,SKC,0.00,VWS V14.01,2013-03-12 15:50:00,
2013-03-12 11:00:00,38.9,28.1,30.11,WNW,292,3.0,13.0,65,0.00,,SKC,0.00,VWS V14.01,2013-03-12 16:00:00,
2013-03-12 11:10:00,39.7,27.8,30.12,WNW,292,4.0,14.0,62,0.00,,SKC,0.00,VWS V14.01,2013-03-12 16:10:00,
2013-03-12 11:20:00,40.1,26.5,30.12,WNW,292,6.0,16.0,58,0.00,,SKC,0.00,VWS V14.01,2013-03-12 16:20:00,
2013-03-12 11:30:00,40.1,26.5,30.12,WNW,292,6.0,20.0,58,0.00,,SKC,0.00,VWS V14.01,2013-03-12 16:30:00,
2013-03-12 11:40:00,40.0,25.1,30.12,WNW,292,7.0,19.0,55,0.00,,SKC,0.00,VWS V14.01,2013-03-12 16:40:00,
2013-03-12 11:50:00,40.0,23.8,30.13,WNW,292,8.0,18.0,52,0.00,,SKC,0.00,VWS V14.01,2013-03-12 16:50:00,
2013-03-12 12:00:00,39.9,24.6,30.13,WNW,292,7.0,19.0,54,0.00,,SKC,0.00,VWS V14.01,2013-03-12 17:00:00,
2013-03-12 12:10:00,41.3,25.0,30.13,WNW,292,7.0,18.0,52,0.00,,SKC,0.00,VWS V14.01,2013-03-12 17:10:00,
2013-03-12 12:20:00,42.4,24.6,30.13,WNW,292,8.0,22.0,49,0.00,,SKC,0.00,VWS V14.01,2013-03-12 17:20:00,
2013-03-12 12:30:00,43.1,25.3,30.12,WNW,292,8.0,21.0,49,0.00,,SKC,0.00,VWS V14.01,2013-03-12 17:30:00,
2013-03-12 12:40:00,44.1,26.2,30.13,WNW,292,7.0,18.0,49,0.00,,SKC,0.00,VWS V14.01,2013-03-12 17:40:00,
2013-03-12 12:50:00,44.8,25.3,30.13,WNW,292,8.0,19.0,46,0.00,,SKC,0.00,VWS V14.01,2013-03-12 17:50:00,
2013-03-12 13:00:00,44.5,24.0,30.12,NW,315,9.0,21.0,44,0.00,,SKC,0.00,VWS V14.01,2013-03-12 18:00:00,
2013-03-12 13:10:00,44.5,23.4,30.13,WNW,292,10.0,22.0,43,0.00,,SKC,0.00,VWS V14.01,2013-03-12 18:10:00,
2013-03-12 13:20:00,43.9,23.4,30.12,WNW,292,12.0,26.0,44,0.00,,SKC,0.00,VWS V14.01,2013-03-12 18:20:00,
2013-03-12 13:30:00,43.8,23.9,30.12,NW,315,12.0,23.0,45,0.00,,SKC,0.00,VWS V14.01,2013-03-12 18:30:00,
2013-03-12 13:40:00,44.6,25.1,30.12,WNW,292,9.0,23.0,46,0.00,,SKC,0.00,VWS V14.01,2013-03-12 18:40:00,
2013-03-12 13:50:00,45.2,24.0,30.13,WNW,292,10.0,19.0,43,0.00,,SKC,0.00,VWS V14.01,2013-03-12 18:50:00,
2013-03-12 14:00:00,45.6,23.3,30.12,WNW,292,10.0,23.0,41,0.00,,SKC,0.00,VWS V14.01,2013-03-12 19:00:00,
2013-03-12 14:10:00,45.6,23.3,30.12,WNW,292,10.0,24.0,41,0.00,,SKC,0.00,VWS V14.01,2013-03-12 19:10:00,
2013-03-12 14:20:00,46.4,24.6,30.11,WNW,292,9.0,25.0,42,0.00,,SKC,0.00,VWS V14.01,2013-03-12 19:20:00,
2013-03-12 14:30:00,45.6,23.3,30.11,NW,315,11.0,24.0,41,0.00,,SKC,0.00,VWS V14.01,2013-03-12 19:30:00,
2013-03-12 14:40:00,44.3,23.2,30.11,NW,315,11.0,25.0,43,0.00,,SKC,0.00,VWS V14.01,2013-03-12 19:40:00,
2013-03-12 14:50:00,43.8,23.3,30.11,WNW,292,12.0,24.0,44,0.00,,SKC,0.00,VWS V14.01,2013-03-12 19:50:00,
2013-03-12 15:00:00,43.9,23.4,30.11,NW,315,11.0,21.0,44,0.00,,SKC,0.00,VWS V14.01,2013-03-12 20:00:00,
2013-03-12 15:10:00,43.8,22.8,30.11,WNW,292,12.0,26.0,43,0.00,,SKC,0.00,VWS V14.01,2013-03-12 20:10:00,
2013-03-12 15:20:00,45.4,24.2,30.11,WNW,292,11.0,20.0,43,0.00,,SKC,0.00,VWS V14.01,2013-03-12 20:20:00,
2013-03-12 15:30:00,45.2,24.0,30.11,NW,315,12.0,23.0,43,0.00,,SKC,0.00,VWS V14.01,2013-03-12 20:30:00,
2013-03-12 15:40:00,44.3,23.2,30.11,NW,315,11.0,25.0,43,0.00,,SKC,0.00,VWS V14.01,2013-03-12 20:40:00,
2013-03-12 15:50:00,43.2,24.4,30.12,NW,315,9.0,20.0,47,0.00,,SKC,0.00,VWS V14.01,2013-03-12 20:50:00,
2013-03-12 16:00:00,43.4,23.5,30.12,WNW,292,10.0,20.0,45,0.00,,SKC,0.00,VWS V14.01,2013-03-12 21:00:00,
2013-03-12 16:10:00,42.6,23.8,30.13,WNW,292,11.0,23.0,47,0.00,,SKC,0.00,VWS V14.01,2013-03-12 21:10:00,
2013-03-12 16:20:00,41.5,23.3,30.13,NW,315,12.0,24.0,48,0.00,,SKC,0.00,VWS V14.01,2013-03-12 21:20:00,
2013-03-12 16:30:00,41.4,23.7,30.14,NW,315,11.0,25.0,49,0.00,,SKC,0.00,VWS V14.01,2013-03-12 21:30:00,
2013-03-12 16:40:00,41.2,24.0,30.14,NW,315,8.0,16.0,50,0.00,,SKC,0.00,VWS V14.01,2013-03-12 21:40:00,
2013-03-12 16:50:00,40.9,24.2,30.14,NW,315,9.0,19.0,51,0.00,,SKC,0.00,VWS V14.01,2013-03-12 21:50:00,
2013-03-12 17:00:00,41.9,24.1,30.14,NW,315,9.0,17.0,49,0.00,,SKC,0.00,VWS V14.01,2013-03-12 22:00:00,
2013-03-12 17:10:00,42.1,23.8,30.14,NW,315,9.0,18.0,48,0.00,,SKC,0.00,VWS V14.01,2013-03-12 22:10:00,
2013-03-12 17:20:00,42.4,23.6,30.14,NW,315,9.0,20.0,47,0.00,,SKC,0.00,VWS V14.01,2013-03-12 22:20:00,
2013-03-12 17:30:00,42.3,24.0,30.14,WNW,292,10.0,21.0,48,0.00,,SKC,0.00,VWS V14.01,2013-03-12 22:30:00,
2013-03-12 17:40:00,41.9,23.7,30.14,WNW,292,8.0,19.0,48,0.00,,SKC,0.00,VWS V14.01,2013-03-12 22:40:00,
2013-03-12 17:50:00,42.1,23.3,30.14,NW,315,8.0,18.0,47,0.00,,SKC,0.00,VWS V14.01,2013-03-12 22:50:00,
2013-03-12 18:00:00,42.3,23.0,30.14,WNW,292,8.0,18.0,46,0.00,,SKC,0.00,VWS V14.01,2013-03-12 23:00:00,
2013-03-12 18:10:00,42.0,22.7,30.15,WNW,292,8.0,22.0,46,0.00,,SKC,0.00,VWS V14.01,2013-03-12 23:10:00,
2013-03-12 18:20:00,41.2,23.0,30.15,NW,315,8.0,23.0,48,0.00,,SKC,0.00,VWS V14.01,2013-03-12 23:20:00,
2013-03-12 18:30:00,40.6,22.0,30.16,NW,315,8.0,16.0,47,0.00,,SKC,0.00,VWS V14.01,2013-03-12 23:30:00,
2013-03-12 18:40:00,39.8,23.2,30.16,WNW,292,7.0,19.0,51,0.00,,SKC,0.00,VWS V14.01,2013-03-12 23:40:00,
2013-03-12 18:50:00,39.7,22.6,30.16,NW,315,6.0,19.0,50,0.00,,SKC,0.00,VWS V14.01,2013-03-12 23:50:00,
2013-03-12 19:00:00,39.4,22.3,30.16,NW,315,6.0,14.0,50,0.00,,SKC,0.00,VWS V14.01,2013-03-13 00:00:00,
2013-03-12 19:10:00,39.1,22.5,30.16,NW,315,6.0,15.0,51,0.00,,SKC,0.00,VWS V14.01,2013-03-13 00:10:00,
2013-03-12 19:20:00,38.7,22.6,30.16,NW,315,5.0,16.0,52,0.00,,SKC,0.00,VWS V14.01,2013-03-13 00:20:00,
2013-03-12 19:30:00,38.3,22.7,30.17,NW,315,3.0,12.0,53,0.00,,SKC,0.00,VWS V14.01,2013-03-13 00:30:00,
2013-03-12 19:40:00,37.8,22.7,30.17,NW,315,2.0,9.0,54,0.00,,SKC,0.00,VWS V14.01,2013-03-13 00:40:00,
2013-03-12 19:50:00,37.1,22.9,30.17,NW,315,1.0,7.0,56,0.00,,SKC,0.00,VWS V14.01,2013-03-13 00:50:00,
2013-03-12 20:00:00,36.6,22.8,30.18,NW,315,0.0,3.0,57,0.00,,SKC,0.00,VWS V14.01,2013-03-13 01:00:00,
2013-03-12 20:10:00,36.0,22.7,30.18,NW,315,0.0,5.0,58,0.00,,SKC,0.00,VWS V14.01,2013-03-13 01:10:00,
2013-03-12 20:20:00,35.6,22.7,30.18,NW,315,0.0,1.0,59,0.00,,SKC,0.00,VWS V14.01,2013-03-13 01:20:00,
2013-03-12 20:30:00,35.0,22.1,30.18,NW,315,0.0,2.0,59,0.00,,SKC,0.00,VWS V14.01,2013-03-13 01:30:00,
2013-03-12 20:40:00,34.6,22.2,30.19,NW,315,0.0,0.0,60,0.00,,SKC,0.00,VWS V14.01,2013-03-13 01:40:00,
2013-03-12 20:50:00,34.2,22.2,30.19,NW,315,0.0,0.0,61,0.00,,SKC,0.00,VWS V14.01,2013-03-13 01:50:00,
2013-03-12 21:00:00,33.7,22.1,30.20,NW,315,0.0,0.0,62,0.00,,SKC,0.00,VWS V14.01,2013-03-13 02:00:00,
2013-03-12 21:10:00,33.0,21.8,30.20,NW,315,0.0,2.0,63,0.00,,SKC,0.00,VWS V14.01,2013-03-13 02:10:00,
2013-03-12 21:20:00,32.6,21.8,30.20,NW,315,0.0,0.0,64,0.00,,SKC,0.00,VWS V14.01,2013-03-13 02:20:00,
2013-03-12 21:30:00,32.2,21.8,30.20,NW,315,0.0,0.0,65,0.00,,SKC,0.00,VWS V14.01,2013-03-13 02:30:00,
2013-03-12 21:40:00,31.9,22.2,30.21,NW,315,0.0,1.0,67,0.00,,SKC,0.00,VWS V14.01,2013-03-13 02:40:00,
2013-03-12 21:50:00,31.6,21.9,30.21,NW,315,0.0,3.0,67,0.00,,SKC,0.00,VWS V14.01,2013-03-13 02:50:00,
2013-03-12 22:00:00,31.5,22.2,30.22,NW,315,0.0,2.0,68,0.00,,SKC,0.00,VWS V14.01,2013-03-13 03:00:00,
2013-03-12 22:10:00,31.3,22.3,30.22,NW,315,0.0,3.0,69,0.00,,SKC,0.00,VWS V14.01,2013-03-13 03:10:00,
2013-03-12 22:20:00,31.0,22.4,30.22,NW,315,0.0,0.0,70,0.00,,SKC,0.00,VWS V14.01,2013-03-13 03:20:00,
2013-03-12 22:30:00,30.7,22.1,30.23,NW,315,0.0,1.0,70,0.00,,SKC,0.00,VWS V14.01,2013-03-13 03:30:00,
2013-03-12 22:40:00,30.5,22.2,30.23,NNW,338,1.0,6.0,71,0.00,,SKC,0.00,VWS V14.01,2013-03-13 03:40:00,
2013-03-12 22:50:00,30.6,22.7,30.23,North,0,2.0,6.0,72,0.00,,SKC,0.00,VWS V14.01,2013-03-13 03:50:00,
2013-03-12 23:00:00,30.4,22.5,30.24,North,0,1.0,3.0,72,0.00,,SKC,0.00,VWS V14.01,2013-03-13 04:00:00,
2013-03-12 23:10:00,30.1,22.2,30.24,North,0,1.0,5.0,72,0.00,,SKC,0.00,VWS V14.01,2013-03-13 04:10:00,
2013-03-12 23:20:00,29.8,22.2,30.24,North,0,1.0,5.0,73,0.00,,SKC,0.00,VWS V14.01,2013-03-13 04:20:00,
2013-03-12 23:30:00,29.5,22.2,30.25,North,0,0.0,2.0,74,0.00,,SKC,0.00,VWS V14.01,2013-03-13 04:30:00,
2013-03-12 23:40:00,29.2,22.0,30.25,North,0,0.0,1.0,74,0.00,,SKC,0.00,VWS V14.01,2013-03-13 04:40:00,
2013-03-12 23:50:00,28.8,21.9,30.25,North,0,0.0,3.0,75,0.00,,SKC,0.00,VWS V14.01,2013-03-13 04:50:00,